sensor_id;sensor_type;location;lat;lon;timestamp;temperature;humidity
21495;DHT22;10909;53.590;10.054;2023-05-19T00:01:46;13.50;48.90
21495;DHT22;10909;53.590;10.054;2023-05-19T00:04:17;13.40;49.00
21495;DHT22;10909;53.590;10.054;2023-05-19T00:06:46;13.40;49.20
21495;DHT22;10909;53.590;10.054;2023-05-19T00:09:15;13.30;49.20
21495;DHT22;10909;53.590;10.054;2023-05-19T00:11:41;13.30;49.20
21495;DHT22;10909;53.590;10.054;2023-05-19T00:14:08;13.30;49.20
21495;DHT22;10909;53.590;10.054;2023-05-19T00:16:36;13.20;49.30
21495;DHT22;10909;53.590;10.054;2023-05-19T00:19:04;13.30;49.40
21495;DHT22;10909;53.590;10.054;2023-05-19T00:21:30;13.30;49.50
21495;DHT22;10909;53.590;10.054;2023-05-19T00:23:56;13.30;49.50
21495;DHT22;10909;53.590;10.054;2023-05-19T00:26:23;13.30;49.50
21495;DHT22;10909;53.590;10.054;2023-05-19T00:28:50;13.40;49.60
21495;DHT22;10909;53.590;10.054;2023-05-19T00:31:16;13.40;49.70
21495;DHT22;10909;53.590;10.054;2023-05-19T00:33:43;13.40;49.60
21495;DHT22;10909;53.590;10.054;2023-05-19T00:36:08;13.40;49.60
21495;DHT22;10909;53.590;10.054;2023-05-19T00:38:35;13.40;49.60
21495;DHT22;10909;53.590;10.054;2023-05-19T00:41:03;13.40;49.80
21495;DHT22;10909;53.590;10.054;2023-05-19T00:43:29;13.40;49.70
21495;DHT22;10909;53.590;10.054;2023-05-19T00:45:56;13.40;49.70
21495;DHT22;10909;53.590;10.054;2023-05-19T00:48:25;13.40;49.80
21495;DHT22;10909;53.590;10.054;2023-05-19T00:50:53;13.40;49.80
21495;DHT22;10909;53.590;10.054;2023-05-19T00:53:19;13.50;49.80
21495;DHT22;10909;53.590;10.054;2023-05-19T00:55:46;13.40;49.80
21495;DHT22;10909;53.590;10.054;2023-05-19T00:58:13;13.40;49.90
21495;DHT22;10909;53.590;10.054;2023-05-19T01:00:39;13.40;49.90
21495;DHT22;10909;53.590;10.054;2023-05-19T01:03:06;13.40;49.90
21495;DHT22;10909;53.590;10.054;2023-05-19T01:05:41;13.40;50.00
21495;DHT22;10909;53.590;10.054;2023-05-19T01:08:09;13.40;50.10
21495;DHT22;10909;53.590;10.054;2023-05-19T01:10:35;13.30;50.00
21495;DHT22;10909;53.590;10.054;2023-05-19T01:13:05;13.30;50.00
21495;DHT22;10909;53.590;10.054;2023-05-19T01:15:45;13.30;50.20
21495;DHT22;10909;53.590;10.054;2023-05-19T01:18:22;13.30;50.30
21495;DHT22;10909;53.590;10.054;2023-05-19T01:21:24;13.30;50.30
21495;DHT22;10909;53.590;10.054;2023-05-19T01:23:55;13.20;50.50
21495;DHT22;10909;53.590;10.054;2023-05-19T01:31:42;13.20;50.40
21495;DHT22;10909;53.590;10.054;2023-05-19T01:34:11;13.10;50.50
21495;DHT22;10909;53.590;10.054;2023-05-19T01:36:40;13.10;50.60
21495;DHT22;10909;53.590;10.054;2023-05-19T01:39:11;13.10;50.60
21495;DHT22;10909;53.590;10.054;2023-05-19T01:41:39;13.10;50.60
21495;DHT22;10909;53.590;10.054;2023-05-19T01:44:06;13.00;50.70
21495;DHT22;10909;53.590;10.054;2023-05-19T01:46:33;13.00;50.80
21495;DHT22;10909;53.590;10.054;2023-05-19T01:48:59;13.00;50.80
21495;DHT22;10909;53.590;10.054;2023-05-19T01:51:25;13.00;50.90
21495;DHT22;10909;53.590;10.054;2023-05-19T01:53:51;12.90;51.00
21495;DHT22;10909;53.590;10.054;2023-05-19T01:56:49;12.90;51.00
21495;DHT22;10909;53.590;10.054;2023-05-19T02:02:07;12.80;51.50
21495;DHT22;10909;53.590;10.054;2023-05-19T02:04:43;12.70;51.20
21495;DHT22;10909;53.590;10.054;2023-05-19T02:07:21;12.70;51.40
21495;DHT22;10909;53.590;10.054;2023-05-19T02:10:02;12.60;51.70
21495;DHT22;10909;53.590;10.054;2023-05-19T02:12:34;12.60;51.90
21495;DHT22;10909;53.590;10.054;2023-05-19T02:17:35;12.50;51.90
21495;DHT22;10909;53.590;10.054;2023-05-19T02:20:03;12.40;52.00
21495;DHT22;10909;53.590;10.054;2023-05-19T02:22:30;12.40;52.20
21495;DHT22;10909;53.590;10.054;2023-05-19T02:24:56;12.30;52.30
21495;DHT22;10909;53.590;10.054;2023-05-19T02:27:23;12.30;52.40
21495;DHT22;10909;53.590;10.054;2023-05-19T02:29:51;12.30;52.50
21495;DHT22;10909;53.590;10.054;2023-05-19T02:32:17;12.30;52.50
21495;DHT22;10909;53.590;10.054;2023-05-19T02:34:43;12.30;52.60
21495;DHT22;10909;53.590;10.054;2023-05-19T02:37:14;12.30;52.80
21495;DHT22;10909;53.590;10.054;2023-05-19T02:39:43;12.30;52.90
21495;DHT22;10909;53.590;10.054;2023-05-19T02:42:09;12.30;53.00
21495;DHT22;10909;53.590;10.054;2023-05-19T02:44:35;12.30;53.00
21495;DHT22;10909;53.590;10.054;2023-05-19T02:47:04;12.30;53.10
21495;DHT22;10909;53.590;10.054;2023-05-19T02:49:31;12.30;53.20
21495;DHT22;10909;53.590;10.054;2023-05-19T02:52:05;12.30;53.10
21495;DHT22;10909;53.590;10.054;2023-05-19T02:54:40;12.30;53.80
21495;DHT22;10909;53.590;10.054;2023-05-19T02:57:06;12.30;53.30
21495;DHT22;10909;53.590;10.054;2023-05-19T02:59:32;12.30;53.30
21495;DHT22;10909;53.590;10.054;2023-05-19T03:02:03;12.30;53.30
21495;DHT22;10909;53.590;10.054;2023-05-19T03:04:29;12.30;53.50
21495;DHT22;10909;53.590;10.054;2023-05-19T03:06:55;12.30;53.50
21495;DHT22;10909;53.590;10.054;2023-05-19T03:09:21;12.30;53.50
21495;DHT22;10909;53.590;10.054;2023-05-19T03:11:47;12.30;53.60
21495;DHT22;10909;53.590;10.054;2023-05-19T03:14:13;12.30;53.60
21495;DHT22;10909;53.590;10.054;2023-05-19T03:16:39;12.30;53.80
21495;DHT22;10909;53.590;10.054;2023-05-19T03:19:08;12.30;53.90
21495;DHT22;10909;53.590;10.054;2023-05-19T03:21:34;12.30;53.70
21495;DHT22;10909;53.590;10.054;2023-05-19T03:24:03;12.30;53.90
21495;DHT22;10909;53.590;10.054;2023-05-19T03:26:28;12.30;54.00
21495;DHT22;10909;53.590;10.054;2023-05-19T03:28:54;12.30;54.00
21495;DHT22;10909;53.590;10.054;2023-05-19T03:31:20;12.40;54.10
21495;DHT22;10909;53.590;10.054;2023-05-19T03:33:48;12.40;54.10
21495;DHT22;10909;53.590;10.054;2023-05-19T03:36:13;12.40;54.10
21495;DHT22;10909;53.590;10.054;2023-05-19T03:38:39;12.40;54.10
21495;DHT22;10909;53.590;10.054;2023-05-19T03:41:05;12.40;54.30
21495;DHT22;10909;53.590;10.054;2023-05-19T03:43:31;12.40;54.30
21495;DHT22;10909;53.590;10.054;2023-05-19T03:45:56;12.40;54.30
21495;DHT22;10909;53.590;10.054;2023-05-19T03:48:22;12.50;54.40
21495;DHT22;10909;53.590;10.054;2023-05-19T03:50:48;12.50;54.30
21495;DHT22;10909;53.590;10.054;2023-05-19T03:53:14;12.50;54.40
21495;DHT22;10909;53.590;10.054;2023-05-19T03:55:40;12.50;54.30
21495;DHT22;10909;53.590;10.054;2023-05-19T03:58:06;12.50;54.50
21495;DHT22;10909;53.590;10.054;2023-05-19T04:00:31;12.50;54.50
21495;DHT22;10909;53.590;10.054;2023-05-19T04:02:57;12.50;54.50
21495;DHT22;10909;53.590;10.054;2023-05-19T04:05:26;12.60;54.60
21495;DHT22;10909;53.590;10.054;2023-05-19T04:07:51;12.50;54.60
21495;DHT22;10909;53.590;10.054;2023-05-19T04:10:18;12.50;54.70
21495;DHT22;10909;53.590;10.054;2023-05-19T04:12:44;12.50;54.70
21495;DHT22;10909;53.590;10.054;2023-05-19T04:15:10;12.50;54.70
21495;DHT22;10909;53.590;10.054;2023-05-19T04:17:36;12.60;55.00
21495;DHT22;10909;53.590;10.054;2023-05-19T04:20:22;12.60;54.90
21495;DHT22;10909;53.590;10.054;2023-05-19T04:22:47;12.60;55.30
21495;DHT22;10909;53.590;10.054;2023-05-19T04:25:13;12.60;54.90
21495;DHT22;10909;53.590;10.054;2023-05-19T04:27:39;12.60;54.90
21495;DHT22;10909;53.590;10.054;2023-05-19T04:30:07;12.70;55.00
21495;DHT22;10909;53.590;10.054;2023-05-19T04:32:33;12.70;55.00
21495;DHT22;10909;53.590;10.054;2023-05-19T04:35:02;12.70;55.00
21495;DHT22;10909;53.590;10.054;2023-05-19T04:37:29;12.70;55.10
21495;DHT22;10909;53.590;10.054;2023-05-19T04:39:54;12.80;55.10
21495;DHT22;10909;53.590;10.054;2023-05-19T04:42:20;12.80;55.10
21495;DHT22;10909;53.590;10.054;2023-05-19T04:44:46;12.80;55.10
21495;DHT22;10909;53.590;10.054;2023-05-19T04:47:14;12.80;55.20
21495;DHT22;10909;53.590;10.054;2023-05-19T04:49:43;12.80;55.00
21495;DHT22;10909;53.590;10.054;2023-05-19T04:52:10;12.90;55.20
21495;DHT22;10909;53.590;10.054;2023-05-19T04:54:36;12.90;55.40
21495;DHT22;10909;53.590;10.054;2023-05-19T04:57:03;12.90;55.50
21495;DHT22;10909;53.590;10.054;2023-05-19T04:59:29;12.90;55.80
21495;DHT22;10909;53.590;10.054;2023-05-19T05:01:55;12.90;55.60
21495;DHT22;10909;53.590;10.054;2023-05-19T05:04:22;12.90;55.60
21495;DHT22;10909;53.590;10.054;2023-05-19T05:06:48;12.90;55.70
21495;DHT22;10909;53.590;10.054;2023-05-19T05:09:15;12.90;55.80
21495;DHT22;10909;53.590;10.054;2023-05-19T05:11:42;13.00;55.70
21495;DHT22;10909;53.590;10.054;2023-05-19T05:14:08;13.00;55.90
21495;DHT22;10909;53.590;10.054;2023-05-19T05:16:34;13.00;56.00
21495;DHT22;10909;53.590;10.054;2023-05-19T05:19:07;13.00;55.90
21495;DHT22;10909;53.590;10.054;2023-05-19T05:21:36;13.00;56.10
21495;DHT22;10909;53.590;10.054;2023-05-19T05:24:02;13.10;56.00
21495;DHT22;10909;53.590;10.054;2023-05-19T05:26:29;13.10;56.00
21495;DHT22;10909;53.590;10.054;2023-05-19T05:28:57;13.10;55.90
21495;DHT22;10909;53.590;10.054;2023-05-19T05:31:24;13.20;55.90
21495;DHT22;10909;53.590;10.054;2023-05-19T05:33:50;13.10;56.00
21495;DHT22;10909;53.590;10.054;2023-05-19T05:36:15;13.20;56.00
21495;DHT22;10909;53.590;10.054;2023-05-19T05:38:41;13.20;56.20
21495;DHT22;10909;53.590;10.054;2023-05-19T05:41:07;13.30;56.30
21495;DHT22;10909;53.590;10.054;2023-05-19T05:43:33;13.30;56.20
21495;DHT22;10909;53.590;10.054;2023-05-19T05:45:58;13.30;56.30
21495;DHT22;10909;53.590;10.054;2023-05-19T05:48:24;13.40;56.20
21495;DHT22;10909;53.590;10.054;2023-05-19T05:50:51;13.40;56.40
21495;DHT22;10909;53.590;10.054;2023-05-19T05:53:18;13.40;56.40
21495;DHT22;10909;53.590;10.054;2023-05-19T05:55:47;13.40;56.60
21495;DHT22;10909;53.590;10.054;2023-05-19T05:58:13;13.50;56.60
21495;DHT22;10909;53.590;10.054;2023-05-19T06:00:40;13.50;56.40
21495;DHT22;10909;53.590;10.054;2023-05-19T06:03:09;13.60;56.50
21495;DHT22;10909;53.590;10.054;2023-05-19T06:05:39;13.70;56.60
21495;DHT22;10909;53.590;10.054;2023-05-19T06:08:07;13.80;56.60
21495;DHT22;10909;53.590;10.054;2023-05-19T06:10:44;13.90;56.60
21495;DHT22;10909;53.590;10.054;2023-05-19T06:13:11;13.90;56.60
21495;DHT22;10909;53.590;10.054;2023-05-19T06:15:38;14.10;56.60
21495;DHT22;10909;53.590;10.054;2023-05-19T06:18:04;14.10;56.50
21495;DHT22;10909;53.590;10.054;2023-05-19T06:20:29;14.20;56.40
21495;DHT22;10909;53.590;10.054;2023-05-19T06:22:55;14.30;56.20
21495;DHT22;10909;53.590;10.054;2023-05-19T06:25:21;14.40;56.00
21495;DHT22;10909;53.590;10.054;2023-05-19T06:27:47;14.40;56.50
21495;DHT22;10909;53.590;10.054;2023-05-19T06:30:13;14.50;55.70
21495;DHT22;10909;53.590;10.054;2023-05-19T06:32:38;14.40;55.50
21495;DHT22;10909;53.590;10.054;2023-05-19T06:35:04;14.50;55.50
21495;DHT22;10909;53.590;10.054;2023-05-19T06:37:34;14.60;55.60
21495;DHT22;10909;53.590;10.054;2023-05-19T06:40:02;14.60;55.60
21495;DHT22;10909;53.590;10.054;2023-05-19T06:42:29;14.60;55.50
21495;DHT22;10909;53.590;10.054;2023-05-19T06:44:55;14.60;55.50
21495;DHT22;10909;53.590;10.054;2023-05-19T06:47:22;14.70;55.50
21495;DHT22;10909;53.590;10.054;2023-05-19T06:49:48;14.70;55.50
21495;DHT22;10909;53.590;10.054;2023-05-19T06:52:20;14.80;55.50
21495;DHT22;10909;53.590;10.054;2023-05-19T06:54:50;14.80;55.50
21495;DHT22;10909;53.590;10.054;2023-05-19T06:57:24;14.80;55.30
21495;DHT22;10909;53.590;10.054;2023-05-19T06:59:56;14.80;55.30
21495;DHT22;10909;53.590;10.054;2023-05-19T07:02:23;14.90;55.50
21495;DHT22;10909;53.590;10.054;2023-05-19T07:04:50;14.90;55.40
21495;DHT22;10909;53.590;10.054;2023-05-19T07:07:17;15.00;55.40
21495;DHT22;10909;53.590;10.054;2023-05-19T07:09:42;15.00;55.30
21495;DHT22;10909;53.590;10.054;2023-05-19T07:12:08;15.10;55.40
21495;DHT22;10909;53.590;10.054;2023-05-19T07:14:34;15.10;55.30
21495;DHT22;10909;53.590;10.054;2023-05-19T07:17:01;15.20;55.30
21495;DHT22;10909;53.590;10.054;2023-05-19T07:19:47;15.30;55.20
21495;DHT22;10909;53.590;10.054;2023-05-19T07:22:15;15.30;55.10
21495;DHT22;10909;53.590;10.054;2023-05-19T07:24:41;15.40;55.10
21495;DHT22;10909;53.590;10.054;2023-05-19T07:27:08;15.50;55.20
21495;DHT22;10909;53.590;10.054;2023-05-19T07:29:35;15.60;55.10
21495;DHT22;10909;53.590;10.054;2023-05-19T07:32:01;15.70;55.00
21495;DHT22;10909;53.590;10.054;2023-05-19T07:34:26;15.70;54.90
21495;DHT22;10909;53.590;10.054;2023-05-19T07:36:52;15.80;54.90
21495;DHT22;10909;53.590;10.054;2023-05-19T07:39:17;15.90;54.90
21495;DHT22;10909;53.590;10.054;2023-05-19T07:42:13;16.00;54.90
21495;DHT22;10909;53.590;10.054;2023-05-19T07:44:44;16.10;54.60
21495;DHT22;10909;53.590;10.054;2023-05-19T07:48:21;16.20;54.80
21495;DHT22;10909;53.590;10.054;2023-05-19T07:54:13;16.50;54.30
21495;DHT22;10909;53.590;10.054;2023-05-19T07:59:31;16.60;54.20
21495;DHT22;10909;53.590;10.054;2023-05-19T08:02:31;16.70;54.10
21495;DHT22;10909;53.590;10.054;2023-05-19T08:04:57;16.80;53.70
21495;DHT22;10909;53.590;10.054;2023-05-19T08:07:22;16.90;54.00
21495;DHT22;10909;53.590;10.054;2023-05-19T08:09:48;17.00;54.10
21495;DHT22;10909;53.590;10.054;2023-05-19T08:13:09;17.00;53.70
21495;DHT22;10909;53.590;10.054;2023-05-19T08:15:37;17.30;53.60
21495;DHT22;10909;53.590;10.054;2023-05-19T08:18:03;17.40;53.30
21495;DHT22;10909;53.590;10.054;2023-05-19T08:20:30;17.50;52.90
21495;DHT22;10909;53.590;10.054;2023-05-19T08:22:55;17.60;52.80
21495;DHT22;10909;53.590;10.054;2023-05-19T08:25:23;17.70;52.80
21495;DHT22;10909;53.590;10.054;2023-05-19T08:27:49;17.70;52.70
21495;DHT22;10909;53.590;10.054;2023-05-19T08:30:14;17.90;52.50
21495;DHT22;10909;53.590;10.054;2023-05-19T08:32:41;17.90;52.30
21495;DHT22;10909;53.590;10.054;2023-05-19T08:35:07;18.00;52.40
21495;DHT22;10909;53.590;10.054;2023-05-19T08:37:33;18.10;51.80
21495;DHT22;10909;53.590;10.054;2023-05-19T08:40:01;18.10;51.30
21495;DHT22;10909;53.590;10.054;2023-05-19T08:42:29;18.20;51.60
21495;DHT22;10909;53.590;10.054;2023-05-19T08:44:55;18.20;51.60
21495;DHT22;10909;53.590;10.054;2023-05-19T08:47:21;18.30;51.50
21495;DHT22;10909;53.590;10.054;2023-05-19T08:49:51;18.30;51.30
21495;DHT22;10909;53.590;10.054;2023-05-19T08:52:46;18.40;51.10
21495;DHT22;10909;53.590;10.054;2023-05-19T08:55:32;18.50;50.70
21495;DHT22;10909;53.590;10.054;2023-05-19T08:58:02;18.50;50.90
21495;DHT22;10909;53.590;10.054;2023-05-19T09:00:30;18.60;50.60
21495;DHT22;10909;53.590;10.054;2023-05-19T09:02:56;18.70;50.80
21495;DHT22;10909;53.590;10.054;2023-05-19T09:05:22;18.70;50.30
21495;DHT22;10909;53.590;10.054;2023-05-19T09:07:48;18.70;50.70
21495;DHT22;10909;53.590;10.054;2023-05-19T09:10:14;18.80;50.70
21495;DHT22;10909;53.590;10.054;2023-05-19T09:12:45;18.80;50.30
21495;DHT22;10909;53.590;10.054;2023-05-19T09:15:12;18.80;50.40
21495;DHT22;10909;53.590;10.054;2023-05-19T09:17:38;18.80;50.40
21495;DHT22;10909;53.590;10.054;2023-05-19T09:20:08;18.90;50.20
21495;DHT22;10909;53.590;10.054;2023-05-19T09:22:45;18.90;50.00
21495;DHT22;10909;53.590;10.054;2023-05-19T09:25:18;19.00;49.40
21495;DHT22;10909;53.590;10.054;2023-05-19T09:27:46;19.00;49.10
21495;DHT22;10909;53.590;10.054;2023-05-19T09:30:16;19.00;49.20
21495;DHT22;10909;53.590;10.054;2023-05-19T09:32:43;19.00;49.20
21495;DHT22;10909;53.590;10.054;2023-05-19T09:35:11;19.00;49.30
21495;DHT22;10909;53.590;10.054;2023-05-19T09:37:41;19.00;48.90
21495;DHT22;10909;53.590;10.054;2023-05-19T09:40:09;19.10;48.90
21495;DHT22;10909;53.590;10.054;2023-05-19T09:42:39;19.10;49.10
21495;DHT22;10909;53.590;10.054;2023-05-19T09:45:06;19.10;48.30
21495;DHT22;10909;53.590;10.054;2023-05-19T09:50:01;19.20;47.90
21495;DHT22;10909;53.590;10.054;2023-05-19T09:52:27;19.20;48.30
21495;DHT22;10909;53.590;10.054;2023-05-19T09:54:53;19.20;48.10
21495;DHT22;10909;53.590;10.054;2023-05-19T09:57:25;19.20;47.90
21495;DHT22;10909;53.590;10.054;2023-05-19T09:59:54;19.20;47.80
21495;DHT22;10909;53.590;10.054;2023-05-19T10:02:24;19.20;47.50
21495;DHT22;10909;53.590;10.054;2023-05-19T10:04:51;19.20;47.90
21495;DHT22;10909;53.590;10.054;2023-05-19T10:07:18;19.30;48.00
21495;DHT22;10909;53.590;10.054;2023-05-19T10:09:44;19.30;48.30
21495;DHT22;10909;53.590;10.054;2023-05-19T10:12:11;19.30;47.90
21495;DHT22;10909;53.590;10.054;2023-05-19T10:14:37;19.40;47.80
21495;DHT22;10909;53.590;10.054;2023-05-19T10:17:04;19.50;47.80
21495;DHT22;10909;53.590;10.054;2023-05-19T10:19:30;19.60;47.70
21495;DHT22;10909;53.590;10.054;2023-05-19T10:21:56;19.70;47.50
21495;DHT22;10909;53.590;10.054;2023-05-19T10:24:26;19.80;47.10
21495;DHT22;10909;53.590;10.054;2023-05-19T10:26:59;19.90;47.30
21495;DHT22;10909;53.590;10.054;2023-05-19T10:29:32;20.00;47.20
21495;DHT22;10909;53.590;10.054;2023-05-19T10:32:05;20.00;46.80
21495;DHT22;10909;53.590;10.054;2023-05-19T10:37:52;20.10;45.80
21495;DHT22;10909;53.590;10.054;2023-05-19T10:40:48;20.20;46.20
21495;DHT22;10909;53.590;10.054;2023-05-19T10:46:23;20.30;45.90
21495;DHT22;10909;53.590;10.054;2023-05-19T10:48:50;20.40;46.40
21495;DHT22;10909;53.590;10.054;2023-05-19T10:51:16;20.40;46.50
21495;DHT22;10909;53.590;10.054;2023-05-19T10:53:42;20.50;46.10
21495;DHT22;10909;53.590;10.054;2023-05-19T10:56:11;20.50;45.50
21495;DHT22;10909;53.590;10.054;2023-05-19T10:58:51;20.50;45.30
21495;DHT22;10909;53.590;10.054;2023-05-19T11:01:18;20.60;45.60
21495;DHT22;10909;53.590;10.054;2023-05-19T11:03:49;20.70;46.40
21495;DHT22;10909;53.590;10.054;2023-05-19T11:06:26;20.70;44.70
21495;DHT22;10909;53.590;10.054;2023-05-19T11:11:22;20.90;45.00
21495;DHT22;10909;53.590;10.054;2023-05-19T11:13:52;21.00;44.60
21495;DHT22;10909;53.590;10.054;2023-05-19T11:16:32;21.00;43.60
21495;DHT22;10909;53.590;10.054;2023-05-19T11:18:59;21.10;44.30
21495;DHT22;10909;53.590;10.054;2023-05-19T11:21:49;21.10;44.70
21495;DHT22;10909;53.590;10.054;2023-05-19T11:24:45;21.20;44.20
21495;DHT22;10909;53.590;10.054;2023-05-19T11:27:21;21.30;43.50
21495;DHT22;10909;53.590;10.054;2023-05-19T11:29:48;21.30;44.00
21495;DHT22;10909;53.590;10.054;2023-05-19T11:32:18;21.40;44.10
21495;DHT22;10909;53.590;10.054;2023-05-19T11:34:44;21.40;43.80
21495;DHT22;10909;53.590;10.054;2023-05-19T11:37:11;21.50;43.80
21495;DHT22;10909;53.590;10.054;2023-05-19T11:39:38;21.50;43.80
21495;DHT22;10909;53.590;10.054;2023-05-19T11:42:04;21.60;43.50
21495;DHT22;10909;53.590;10.054;2023-05-19T11:44:30;21.60;43.10
21495;DHT22;10909;53.590;10.054;2023-05-19T11:46:59;21.70;44.10
21495;DHT22;10909;53.590;10.054;2023-05-19T11:49:27;21.70;43.60
21495;DHT22;10909;53.590;10.054;2023-05-19T11:51:55;21.80;43.30
21495;DHT22;10909;53.590;10.054;2023-05-19T11:54:31;21.90;42.70
21495;DHT22;10909;53.590;10.054;2023-05-19T11:57:01;22.00;42.80
21495;DHT22;10909;53.590;10.054;2023-05-19T11:59:35;22.10;43.20
21495;DHT22;10909;53.590;10.054;2023-05-19T12:02:24;22.20;41.70
21495;DHT22;10909;53.590;10.054;2023-05-19T12:04:50;22.20;40.40
21495;DHT22;10909;53.590;10.054;2023-05-19T12:07:17;22.30;41.80
21495;DHT22;10909;53.590;10.054;2023-05-19T12:09:45;22.40;41.80
21495;DHT22;10909;53.590;10.054;2023-05-19T12:12:18;22.50;41.10
21495;DHT22;10909;53.590;10.054;2023-05-19T12:14:49;22.60;41.10
21495;DHT22;10909;53.590;10.054;2023-05-19T12:17:19;22.70;40.90
21495;DHT22;10909;53.590;10.054;2023-05-19T12:19:49;22.70;40.10
21495;DHT22;10909;53.590;10.054;2023-05-19T12:22:15;22.80;41.20
21495;DHT22;10909;53.590;10.054;2023-05-19T12:24:42;22.90;40.50
21495;DHT22;10909;53.590;10.054;2023-05-19T12:27:15;23.10;41.50
21495;DHT22;10909;53.590;10.054;2023-05-19T12:29:42;23.30;40.50
21495;DHT22;10909;53.590;10.054;2023-05-19T12:32:09;23.60;41.00
21495;DHT22;10909;53.590;10.054;2023-05-19T12:34:41;23.70;41.20
21495;DHT22;10909;53.590;10.054;2023-05-19T12:37:09;23.90;41.60
21495;DHT22;10909;53.590;10.054;2023-05-19T12:39:38;24.20;41.20
21495;DHT22;10909;53.590;10.054;2023-05-19T12:42:09;24.50;41.30
21495;DHT22;10909;53.590;10.054;2023-05-19T12:44:44;24.80;40.10
21495;DHT22;10909;53.590;10.054;2023-05-19T12:47:14;24.90;38.40
21495;DHT22;10909;53.590;10.054;2023-05-19T12:50:06;25.00;37.50
21495;DHT22;10909;53.590;10.054;2023-05-19T12:52:40;24.90;36.90
21495;DHT22;10909;53.590;10.054;2023-05-19T12:55:07;24.70;37.70
21495;DHT22;10909;53.590;10.054;2023-05-19T12:57:36;24.70;38.30
21495;DHT22;10909;53.590;10.054;2023-05-19T13:00:07;24.70;39.10
21495;DHT22;10909;53.590;10.054;2023-05-19T13:02:56;25.00;39.10
21495;DHT22;10909;53.590;10.054;2023-05-19T13:05:22;25.40;36.40
21495;DHT22;10909;53.590;10.054;2023-05-19T13:08:07;25.60;37.90
21495;DHT22;10909;53.590;10.054;2023-05-19T13:10:39;25.80;37.00
21495;DHT22;10909;53.590;10.054;2023-05-19T13:13:10;26.00;37.70
21495;DHT22;10909;53.590;10.054;2023-05-19T13:15:42;26.20;37.40
21495;DHT22;10909;53.590;10.054;2023-05-19T13:18:13;26.30;36.10
21495;DHT22;10909;53.590;10.054;2023-05-19T13:20:41;26.30;36.00
21495;DHT22;10909;53.590;10.054;2023-05-19T13:23:09;26.20;34.70
21495;DHT22;10909;53.590;10.054;2023-05-19T13:25:35;26.20;34.40
21495;DHT22;10909;53.590;10.054;2023-05-19T13:28:03;26.00;34.70
21495;DHT22;10909;53.590;10.054;2023-05-19T13:30:33;25.80;35.00
21495;DHT22;10909;53.590;10.054;2023-05-19T13:33:00;25.80;36.00
21495;DHT22;10909;53.590;10.054;2023-05-19T13:35:30;26.00;37.50
21495;DHT22;10909;53.590;10.054;2023-05-19T13:38:06;26.40;37.40
21495;DHT22;10909;53.590;10.054;2023-05-19T13:40:34;26.80;37.50
21495;DHT22;10909;53.590;10.054;2023-05-19T13:43:02;27.20;36.50
21495;DHT22;10909;53.590;10.054;2023-05-19T13:45:30;27.40;35.60
21495;DHT22;10909;53.590;10.054;2023-05-19T13:47:56;27.50;35.40
21495;DHT22;10909;53.590;10.054;2023-05-19T13:50:21;27.80;35.90
21495;DHT22;10909;53.590;10.054;2023-05-19T13:52:48;28.10;36.20
21495;DHT22;10909;53.590;10.054;2023-05-19T13:55:15;28.50;35.60
21495;DHT22;10909;53.590;10.054;2023-05-19T13:57:41;28.90;35.40
21495;DHT22;10909;53.590;10.054;2023-05-19T14:00:09;29.20;35.30
21495;DHT22;10909;53.590;10.054;2023-05-19T14:02:37;29.40;33.20
21495;DHT22;10909;53.590;10.054;2023-05-19T14:07:33;29.40;32.90
21495;DHT22;10909;53.590;10.054;2023-05-19T14:10:02;29.50;32.60
21495;DHT22;10909;53.590;10.054;2023-05-19T14:12:29;29.70;32.90
21495;DHT22;10909;53.590;10.054;2023-05-19T14:14:55;29.90;33.20
21495;DHT22;10909;53.590;10.054;2023-05-19T14:17:21;30.20;32.40
21495;DHT22;10909;53.590;10.054;2023-05-19T14:19:46;30.30;31.00
21495;DHT22;10909;53.590;10.054;2023-05-19T14:22:12;30.40;31.90
21495;DHT22;10909;53.590;10.054;2023-05-19T14:24:38;30.50;32.20
21495;DHT22;10909;53.590;10.054;2023-05-19T14:27:03;30.70;32.20
21495;DHT22;10909;53.590;10.054;2023-05-19T14:29:29;30.80;31.40
21495;DHT22;10909;53.590;10.054;2023-05-19T14:31:58;30.80;30.50
21495;DHT22;10909;53.590;10.054;2023-05-19T14:34:24;30.50;28.90
21495;DHT22;10909;53.590;10.054;2023-05-19T14:36:50;30.10;29.50
21495;DHT22;10909;53.590;10.054;2023-05-19T14:39:16;29.90;29.50
21495;DHT22;10909;53.590;10.054;2023-05-19T14:41:42;29.70;29.90
21495;DHT22;10909;53.590;10.054;2023-05-19T14:44:07;29.50;29.90
21495;DHT22;10909;53.590;10.054;2023-05-19T14:46:33;29.40;30.00
21495;DHT22;10909;53.590;10.054;2023-05-19T14:48:59;29.50;31.10
21495;DHT22;10909;53.590;10.054;2023-05-19T14:51:25;29.70;31.00
21495;DHT22;10909;53.590;10.054;2023-05-19T14:53:51;29.90;31.50
21495;DHT22;10909;53.590;10.054;2023-05-19T14:56:17;30.20;31.40
21495;DHT22;10909;53.590;10.054;2023-05-19T14:58:43;30.20;30.20
21495;DHT22;10909;53.590;10.054;2023-05-19T15:01:09;30.10;29.80
21495;DHT22;10909;53.590;10.054;2023-05-19T15:03:36;29.70;29.70
21495;DHT22;10909;53.590;10.054;2023-05-19T15:06:02;29.30;29.40
21495;DHT22;10909;53.590;10.054;2023-05-19T15:08:27;28.90;29.40
21495;DHT22;10909;53.590;10.054;2023-05-19T15:10:55;28.40;29.80
21495;DHT22;10909;53.590;10.054;2023-05-19T15:15:56;27.40;30.20
21495;DHT22;10909;53.590;10.054;2023-05-19T15:18:27;26.90;30.70
21495;DHT22;10909;53.590;10.054;2023-05-19T15:20:52;26.60;31.40
21495;DHT22;10909;53.590;10.054;2023-05-19T15:23:18;26.30;31.70
21495;DHT22;10909;53.590;10.054;2023-05-19T15:25:44;26.00;31.90
21495;DHT22;10909;53.590;10.054;2023-05-19T15:28:12;25.80;32.20
21495;DHT22;10909;53.590;10.054;2023-05-19T15:33:13;25.40;32.60
21495;DHT22;10909;53.590;10.054;2023-05-19T15:35:41;25.30;33.30
21495;DHT22;10909;53.590;10.054;2023-05-19T15:38:15;25.20;33.40
21495;DHT22;10909;53.590;10.054;2023-05-19T15:40:41;25.10;33.50
21495;DHT22;10909;53.590;10.054;2023-05-19T15:43:08;25.10;33.90
21495;DHT22;10909;53.590;10.054;2023-05-19T15:45:34;25.10;34.00
21495;DHT22;10909;53.590;10.054;2023-05-19T15:47:59;25.00;33.80
21495;DHT22;10909;53.590;10.054;2023-05-19T15:50:25;24.90;34.00
21495;DHT22;10909;53.590;10.054;2023-05-19T15:52:51;24.80;34.10
21495;DHT22;10909;53.590;10.054;2023-05-19T15:55:17;24.70;34.50
21495;DHT22;10909;53.590;10.054;2023-05-19T15:57:44;24.70;35.30
21495;DHT22;10909;53.590;10.054;2023-05-19T16:00:10;24.80;35.50
21495;DHT22;10909;53.590;10.054;2023-05-19T16:02:36;25.00;35.60